sensor_id;sensor_type;location;lat;lon;timestamp;P1;durP1;ratioP1;P2;durP2;ratioP2
7693;SDS011;3889;48.162;11.510;2023-05-10T00:02:13;1.50;;;1.40;;
7693;SDS011;3889;48.162;11.510;2023-05-10T00:04:41;1.50;;;1.40;;
7693;SDS011;3889;48.162;11.510;2023-05-10T00:07:10;1.60;;;1.50;;
7693;SDS011;3889;48.162;11.510;2023-05-10T00:09:38;1.83;;;1.50;;
7693;SDS011;3889;48.162;11.510;2023-05-10T00:12:06;1.63;;;1.52;;
7693;SDS011;3889;48.162;11.510;2023-05-10T00:14:34;2.65;;;1.63;;
7693;SDS011;3889;48.162;11.510;2023-05-10T00:17:02;2.50;;;1.30;;
7693;SDS011;3889;48.162;11.510;2023-05-10T00:19:30;1.60;;;1.50;;
7693;SDS011;3889;48.162;11.510;2023-05-10T00:22:07;1.60;;;1.40;;
7693;SDS011;3889;48.162;11.510;2023-05-10T00:24:36;1.67;;;1.30;;
7693;SDS011;3889;48.162;11.510;2023-05-10T00:27:03;2.10;;;1.45;;
7693;SDS011;3889;48.162;11.510;2023-05-10T00:29:31;1.45;;;1.35;;
7693;SDS011;3889;48.162;11.510;2023-05-10T00:32:00;1.35;;;1.25;;
7693;SDS011;3889;48.162;11.510;2023-05-10T00:34:28;1.85;;;1.30;;
7693;SDS011;3889;48.162;11.510;2023-05-10T00:36:56;1.30;;;1.20;;
7693;SDS011;3889;48.162;11.510;2023-05-10T00:39:24;1.50;;;1.27;;
7693;SDS011;3889;48.162;11.510;2023-05-10T00:41:53;1.40;;;1.20;;
7693;SDS011;3889;48.162;11.510;2023-05-10T00:44:21;1.98;;;1.00;;
7693;SDS011;3889;48.162;11.510;2023-05-10T00:46:49;1.75;;;1.17;;
7693;SDS011;3889;48.162;11.510;2023-05-10T00:49:17;1.17;;;1.08;;
7693;SDS011;3889;48.162;11.510;2023-05-10T00:51:45;1.10;;;1.00;;
7693;SDS011;3889;48.162;11.510;2023-05-10T00:54:14;1.58;;;1.20;;
7693;SDS011;3889;48.162;11.510;2023-05-10T00:56:42;1.10;;;1.00;;
7693;SDS011;3889;48.162;11.510;2023-05-10T00:59:16;1.30;;;0.88;;
7693;SDS011;3889;48.162;11.510;2023-05-10T01:01:44;1.40;;;1.00;;
7693;SDS011;3889;48.162;11.510;2023-05-10T01:04:12;1.60;;;1.20;;
7693;SDS011;3889;48.162;11.510;2023-05-10T01:06:41;1.00;;;1.00;;
7693;SDS011;3889;48.162;11.510;2023-05-10T01:09:09;1.20;;;1.02;;
7693;SDS011;3889;48.162;11.510;2023-05-10T01:11:38;2.55;;;1.05;;
7693;SDS011;3889;48.162;11.510;2023-05-10T01:14:07;1.60;;;1.00;;
7693;SDS011;3889;48.162;11.510;2023-05-10T01:16:37;1.33;;;0.90;;
7693;SDS011;3889;48.162;11.510;2023-05-10T01:19:09;1.63;;;0.90;;
7693;SDS011;3889;48.162;11.510;2023-05-10T01:21:48;1.05;;;0.90;;
7693;SDS011;3889;48.162;11.510;2023-05-10T01:24:42;1.40;;;1.00;;
7693;SDS011;3889;48.162;11.510;2023-05-10T01:27:48;2.40;;;1.00;;
7693;SDS011;3889;48.162;11.510;2023-05-10T01:30:58;1.02;;;0.90;;
7693;SDS011;3889;48.162;11.510;2023-05-10T01:33:36;1.45;;;1.05;;
7693;SDS011;3889;48.162;11.510;2023-05-10T01:36:08;0.98;;;0.90;;
7693;SDS011;3889;48.162;11.510;2023-05-10T01:38:44;1.73;;;0.83;;
7693;SDS011;3889;48.162;11.510;2023-05-10T01:41:18;1.85;;;1.10;;
7693;SDS011;3889;48.162;11.510;2023-05-10T01:43:54;1.85;;;1.00;;
7693;SDS011;3889;48.162;11.510;2023-05-10T01:46:27;1.20;;;1.00;;
7693;SDS011;3889;48.162;11.510;2023-05-10T01:49:01;4.15;;;1.10;;
7693;SDS011;3889;48.162;11.510;2023-05-10T01:51:36;0.70;;;0.70;;
7693;SDS011;3889;48.162;11.510;2023-05-10T01:54:08;1.20;;;0.90;;
7693;SDS011;3889;48.162;11.510;2023-05-10T01:56:40;1.30;;;0.90;;
7693;SDS011;3889;48.162;11.510;2023-05-10T01:59:11;1.38;;;1.00;;
7693;SDS011;3889;48.162;11.510;2023-05-10T02:01:44;1.20;;;0.90;;
7693;SDS011;3889;48.162;11.510;2023-05-10T02:04:15;1.98;;;0.80;;
7693;SDS011;3889;48.162;11.510;2023-05-10T02:06:44;0.83;;;0.80;;
7693;SDS011;3889;48.162;11.510;2023-05-10T02:09:14;3.17;;;1.15;;
7693;SDS011;3889;48.162;11.510;2023-05-10T02:11:45;0.80;;;0.80;;
7693;SDS011;3889;48.162;11.510;2023-05-10T02:14:15;0.95;;;0.80;;
7693;SDS011;3889;48.162;11.510;2023-05-10T02:16:44;1.35;;;0.90;;
7693;SDS011;3889;48.162;11.510;2023-05-10T02:19:14;1.23;;;0.98;;
7693;SDS011;3889;48.162;11.510;2023-05-10T02:21:44;0.80;;;0.80;;
7693;SDS011;3889;48.162;11.510;2023-05-10T02:24:13;1.30;;;0.98;;
7693;SDS011;3889;48.162;11.510;2023-05-10T02:26:43;1.48;;;1.00;;
7693;SDS011;3889;48.162;11.510;2023-05-10T02:29:12;3.10;;;1.00;;
7693;SDS011;3889;48.162;11.510;2023-05-10T02:31:41;1.10;;;1.00;;
7693;SDS011;3889;48.162;11.510;2023-05-10T02:34:09;1.88;;;1.00;;
7693;SDS011;3889;48.162;11.510;2023-05-10T02:36:39;0.90;;;0.90;;
7693;SDS011;3889;48.162;11.510;2023-05-10T02:39:09;1.33;;;1.00;;
7693;SDS011;3889;48.162;11.510;2023-05-10T02:41:39;1.60;;;0.90;;
7693;SDS011;3889;48.162;11.510;2023-05-10T02:44:08;1.80;;;0.90;;
7693;SDS011;3889;48.162;11.510;2023-05-10T02:46:37;2.70;;;0.82;;
7693;SDS011;3889;48.162;11.510;2023-05-10T02:49:05;1.00;;;1.00;;
7693;SDS011;3889;48.162;11.510;2023-05-10T02:51:34;1.20;;;0.80;;
7693;SDS011;3889;48.162;11.510;2023-05-10T02:54:09;0.80;;;0.80;;
7693;SDS011;3889;48.162;11.510;2023-05-10T02:56:40;0.98;;;0.98;;
7693;SDS011;3889;48.162;11.510;2023-05-10T02:59:14;1.17;;;0.95;;
7693;SDS011;3889;48.162;11.510;2023-05-10T03:01:41;1.00;;;0.80;;
7693;SDS011;3889;48.162;11.510;2023-05-10T03:04:09;1.20;;;0.93;;
7693;SDS011;3889;48.162;11.510;2023-05-10T03:06:37;0.77;;;0.77;;
7693;SDS011;3889;48.162;11.510;2023-05-10T03:09:06;0.73;;;0.73;;
7693;SDS011;3889;48.162;11.510;2023-05-10T03:11:39;0.90;;;0.90;;
7693;SDS011;3889;48.162;11.510;2023-05-10T03:14:29;1.35;;;0.80;;
7693;SDS011;3889;48.162;11.510;2023-05-10T03:17:09;1.35;;;0.90;;
7693;SDS011;3889;48.162;11.510;2023-05-10T03:19:43;1.20;;;0.80;;
7693;SDS011;3889;48.162;11.510;2023-05-10T03:22:18;0.80;;;0.70;;
7693;SDS011;3889;48.162;11.510;2023-05-10T03:24:55;0.82;;;0.82;;
7693;SDS011;3889;48.162;11.510;2023-05-10T03:27:25;1.93;;;1.00;;
7693;SDS011;3889;48.162;11.510;2023-05-10T03:29:54;0.75;;;0.70;;
7693;SDS011;3889;48.162;11.510;2023-05-10T03:32:22;1.15;;;0.90;;
7693;SDS011;3889;48.162;11.510;2023-05-10T03:34:50;1.60;;;0.80;;
7693;SDS011;3889;48.162;11.510;2023-05-10T03:37:18;1.02;;;0.80;;
7693;SDS011;3889;48.162;11.510;2023-05-10T03:39:46;1.30;;;0.90;;
7693;SDS011;3889;48.162;11.510;2023-05-10T03:42:15;1.15;;;0.70;;
7693;SDS011;3889;48.162;11.510;2023-05-10T03:44:44;1.50;;;0.90;;
7693;SDS011;3889;48.162;11.510;2023-05-10T03:47:11;0.80;;;0.80;;
7693;SDS011;3889;48.162;11.510;2023-05-10T03:49:39;1.85;;;0.80;;
7693;SDS011;3889;48.162;11.510;2023-05-10T03:52:07;1.30;;;0.70;;
7693;SDS011;3889;48.162;11.510;2023-05-10T03:54:35;1.23;;;0.93;;
7693;SDS011;3889;48.162;11.510;2023-05-10T03:57:03;0.70;;;0.70;;
7693;SDS011;3889;48.162;11.510;2023-05-10T03:59:32;3.20;;;1.00;;
7693;SDS011;3889;48.162;11.510;2023-05-10T04:02:01;1.20;;;0.80;;
7693;SDS011;3889;48.162;11.510;2023-05-10T04:04:30;1.90;;;0.90;;
7693;SDS011;3889;48.162;11.510;2023-05-10T04:06:59;1.20;;;0.90;;
7693;SDS011;3889;48.162;11.510;2023-05-10T04:09:28;1.73;;;0.80;;
7693;SDS011;3889;48.162;11.510;2023-05-10T04:11:58;1.80;;;1.00;;
7693;SDS011;3889;48.162;11.510;2023-05-10T04:14:26;1.07;;;0.80;;
7693;SDS011;3889;48.162;11.510;2023-05-10T04:16:55;0.90;;;0.70;;
7693;SDS011;3889;48.162;11.510;2023-05-10T04:19:23;0.88;;;0.80;;
7693;SDS011;3889;48.162;11.510;2023-05-10T04:21:50;1.20;;;0.95;;
7693;SDS011;3889;48.162;11.510;2023-05-10T04:24:18;1.42;;;0.90;;
7693;SDS011;3889;48.162;11.510;2023-05-10T04:26:46;0.98;;;0.90;;
7693;SDS011;3889;48.162;11.510;2023-05-10T04:29:14;1.98;;;1.35;;
7693;SDS011;3889;48.162;11.510;2023-05-10T04:31:41;2.10;;;0.95;;
7693;SDS011;3889;48.162;11.510;2023-05-10T04:34:11;0.80;;;0.80;;
7693;SDS011;3889;48.162;11.510;2023-05-10T04:36:38;1.20;;;0.90;;
7693;SDS011;3889;48.162;11.510;2023-05-10T04:39:06;1.10;;;1.00;;
7693;SDS011;3889;48.162;11.510;2023-05-10T04:41:35;0.93;;;0.80;;
7693;SDS011;3889;48.162;11.510;2023-05-10T04:44:05;1.30;;;1.00;;
7693;SDS011;3889;48.162;11.510;2023-05-10T04:46:33;0.98;;;0.90;;
7693;SDS011;3889;48.162;11.510;2023-05-10T04:49:01;0.73;;;0.73;;
7693;SDS011;3889;48.162;11.510;2023-05-10T04:51:30;0.80;;;0.80;;
7693;SDS011;3889;48.162;11.510;2023-05-10T04:53:58;1.95;;;1.08;;
7693;SDS011;3889;48.162;11.510;2023-05-10T04:56:31;1.33;;;0.80;;
7693;SDS011;3889;48.162;11.510;2023-05-10T04:58:59;0.60;;;0.60;;
7693;SDS011;3889;48.162;11.510;2023-05-10T05:01:27;1.38;;;0.80;;
7693;SDS011;3889;48.162;11.510;2023-05-10T05:03:55;2.30;;;0.80;;
7693;SDS011;3889;48.162;11.510;2023-05-10T05:06:23;1.80;;;0.70;;
7693;SDS011;3889;48.162;11.510;2023-05-10T05:08:54;2.30;;;0.80;;
7693;SDS011;3889;48.162;11.510;2023-05-10T05:11:22;1.20;;;0.70;;
7693;SDS011;3889;48.162;11.510;2023-05-10T05:13:50;1.63;;;0.70;;
7693;SDS011;3889;48.162;11.510;2023-05-10T05:16:17;1.20;;;0.70;;
7693;SDS011;3889;48.162;11.510;2023-05-10T05:18:45;1.00;;;0.80;;
7693;SDS011;3889;48.162;11.510;2023-05-10T05:21:14;1.60;;;0.90;;
7693;SDS011;3889;48.162;11.510;2023-05-10T05:23:42;1.65;;;1.48;;
7693;SDS011;3889;48.162;11.510;2023-05-10T05:26:12;1.00;;;0.90;;
7693;SDS011;3889;48.162;11.510;2023-05-10T05:28:41;2.10;;;0.80;;
7693;SDS011;3889;48.162;11.510;2023-05-10T05:31:09;1.55;;;1.00;;
7693;SDS011;3889;48.162;11.510;2023-05-10T05:33:36;1.10;;;0.80;;
7693;SDS011;3889;48.162;11.510;2023-05-10T05:36:05;1.40;;;1.08;;
7693;SDS011;3889;48.162;11.510;2023-05-10T05:38:33;2.30;;;0.98;;
7693;SDS011;3889;48.162;11.510;2023-05-10T05:41:01;2.63;;;1.23;;
7693;SDS011;3889;48.162;11.510;2023-05-10T05:43:30;1.20;;;1.10;;
7693;SDS011;3889;48.162;11.510;2023-05-10T05:45:58;1.40;;;0.80;;
7693;SDS011;3889;48.162;11.510;2023-05-10T05:48:26;1.38;;;0.80;;
7693;SDS011;3889;48.162;11.510;2023-05-10T05:50:54;2.03;;;0.93;;
7693;SDS011;3889;48.162;11.510;2023-05-10T05:53:23;1.92;;;1.00;;
7693;SDS011;3889;48.162;11.510;2023-05-10T05:55:51;1.00;;;0.88;;
7693;SDS011;3889;48.162;11.510;2023-05-10T05:58:20;1.33;;;0.80;;
7693;SDS011;3889;48.162;11.510;2023-05-10T06:00:50;1.25;;;0.80;;
7693;SDS011;3889;48.162;11.510;2023-05-10T06:03:18;0.80;;;0.80;;
7693;SDS011;3889;48.162;11.510;2023-05-10T06:05:47;0.70;;;0.70;;
7693;SDS011;3889;48.162;11.510;2023-05-10T06:08:15;1.10;;;0.80;;
7693;SDS011;3889;48.162;11.510;2023-05-10T06:10:42;3.28;;;1.60;;
7693;SDS011;3889;48.162;11.510;2023-05-10T06:13:11;1.60;;;1.10;;
7693;SDS011;3889;48.162;11.510;2023-05-10T06:15:39;2.50;;;1.30;;
7693;SDS011;3889;48.162;11.510;2023-05-10T06:18:08;1.45;;;1.08;;
7693;SDS011;3889;48.162;11.510;2023-05-10T06:20:36;1.73;;;1.00;;
7693;SDS011;3889;48.162;11.510;2023-05-10T06:23:04;1.17;;;0.85;;
7693;SDS011;3889;48.162;11.510;2023-05-10T06:25:31;1.30;;;0.80;;
7693;SDS011;3889;48.162;11.510;2023-05-10T06:28:00;2.05;;;1.23;;
7693;SDS011;3889;48.162;11.510;2023-05-10T06:30:28;1.25;;;1.00;;
7693;SDS011;3889;48.162;11.510;2023-05-10T06:32:55;1.30;;;1.00;;
7693;SDS011;3889;48.162;11.510;2023-05-10T06:35:25;1.17;;;1.08;;
7693;SDS011;3889;48.162;11.510;2023-05-10T06:37:53;1.13;;;1.00;;
7693;SDS011;3889;48.162;11.510;2023-05-10T06:40:21;1.98;;;1.00;;
7693;SDS011;3889;48.162;11.510;2023-05-10T06:42:49;1.30;;;1.10;;
7693;SDS011;3889;48.162;11.510;2023-05-10T06:45:17;1.40;;;1.00;;
7693;SDS011;3889;48.162;11.510;2023-05-10T06:47:45;1.30;;;1.02;;
7693;SDS011;3889;48.162;11.510;2023-05-10T06:50:13;1.00;;;1.00;;
7693;SDS011;3889;48.162;11.510;2023-05-10T06:52:42;1.33;;;1.00;;
7693;SDS011;3889;48.162;11.510;2023-05-10T06:55:10;1.77;;;1.15;;
7693;SDS011;3889;48.162;11.510;2023-05-10T06:57:38;1.40;;;1.20;;
7693;SDS011;3889;48.162;11.510;2023-05-10T07:00:06;1.25;;;1.10;;
7693;SDS011;3889;48.162;11.510;2023-05-10T07:02:35;6.18;;;1.30;;
7693;SDS011;3889;48.162;11.510;2023-05-10T07:05:03;1.77;;;1.20;;
7693;SDS011;3889;48.162;11.510;2023-05-10T07:07:32;1.45;;;1.10;;
7693;SDS011;3889;48.162;11.510;2023-05-10T07:10:01;1.60;;;1.38;;
7693;SDS011;3889;48.162;11.510;2023-05-10T07:12:29;3.17;;;1.30;;
7693;SDS011;3889;48.162;11.510;2023-05-10T07:14:57;2.30;;;1.20;;
7693;SDS011;3889;48.162;11.510;2023-05-10T07:17:25;1.30;;;1.20;;
7693;SDS011;3889;48.162;11.510;2023-05-10T07:19:53;1.40;;;1.30;;
7693;SDS011;3889;48.162;11.510;2023-05-10T07:22:21;2.97;;;1.20;;
7693;SDS011;3889;48.162;11.510;2023-05-10T07:24:49;2.50;;;1.15;;
7693;SDS011;3889;48.162;11.510;2023-05-10T07:27:18;1.27;;;1.10;;
7693;SDS011;3889;48.162;11.510;2023-05-10T07:29:46;1.90;;;1.10;;
7693;SDS011;3889;48.162;11.510;2023-05-10T07:32:14;2.90;;;1.37;;
7693;SDS011;3889;48.162;11.510;2023-05-10T07:34:42;2.38;;;1.10;;
7693;SDS011;3889;48.162;11.510;2023-05-10T07:37:10;3.20;;;1.15;;
7693;SDS011;3889;48.162;11.510;2023-05-10T07:39:38;1.30;;;1.20;;
7693;SDS011;3889;48.162;11.510;2023-05-10T07:42:06;1.40;;;1.10;;
7693;SDS011;3889;48.162;11.510;2023-05-10T07:44:35;2.05;;;1.20;;
7693;SDS011;3889;48.162;11.510;2023-05-10T07:47:03;1.50;;;1.20;;
7693;SDS011;3889;48.162;11.510;2023-05-10T07:49:31;1.20;;;1.10;;
7693;SDS011;3889;48.162;11.510;2023-05-10T07:51:59;1.30;;;1.05;;
7693;SDS011;3889;48.162;11.510;2023-05-10T07:54:27;1.45;;;1.08;;
7693;SDS011;3889;48.162;11.510;2023-05-10T07:56:54;1.40;;;1.10;;
7693;SDS011;3889;48.162;11.510;2023-05-10T07:59:22;1.63;;;1.10;;
7693;SDS011;3889;48.162;11.510;2023-05-10T08:01:51;3.40;;;2.05;;
7693;SDS011;3889;48.162;11.510;2023-05-10T08:04:19;1.92;;;1.10;;
7693;SDS011;3889;48.162;11.510;2023-05-10T08:06:47;1.20;;;1.10;;
7693;SDS011;3889;48.162;11.510;2023-05-10T08:09:15;2.22;;;1.20;;
7693;SDS011;3889;48.162;11.510;2023-05-10T08:11:44;1.63;;;1.10;;
7693;SDS011;3889;48.162;11.510;2023-05-10T08:14:12;1.45;;;1.10;;
7693;SDS011;3889;48.162;11.510;2023-05-10T08:16:39;1.10;;;1.00;;
7693;SDS011;3889;48.162;11.510;2023-05-10T08:19:09;1.50;;;1.17;;
7693;SDS011;3889;48.162;11.510;2023-05-10T08:21:36;1.08;;;0.93;;
7693;SDS011;3889;48.162;11.510;2023-05-10T08:24:06;1.65;;;1.10;;
7693;SDS011;3889;48.162;11.510;2023-05-10T08:26:34;0.85;;;0.80;;
7693;SDS011;3889;48.162;11.510;2023-05-10T08:29:02;1.20;;;1.00;;
7693;SDS011;3889;48.162;11.510;2023-05-10T08:31:30;1.02;;;0.93;;
7693;SDS011;3889;48.162;11.510;2023-05-10T08:33:58;1.10;;;0.95;;
7693;SDS011;3889;48.162;11.510;2023-05-10T08:36:27;1.00;;;0.90;;
7693;SDS011;3889;48.162;11.510;2023-05-10T08:38:55;1.63;;;1.00;;
7693;SDS011;3889;48.162;11.510;2023-05-10T08:41:23;1.70;;;1.20;;
7693;SDS011;3889;48.162;11.510;2023-05-10T08:43:52;1.60;;;1.00;;
7693;SDS011;3889;48.162;11.510;2023-05-10T08:46:21;1.10;;;1.00;;
7693;SDS011;3889;48.162;11.510;2023-05-10T08:48:50;1.20;;;1.00;;
7693;SDS011;3889;48.162;11.510;2023-05-10T08:51:19;1.00;;;0.90;;
7693;SDS011;3889;48.162;11.510;2023-05-10T08:53:51;1.38;;;1.10;;
7693;SDS011;3889;48.162;11.510;2023-05-10T08:56:19;2.53;;;1.00;;
7693;SDS011;3889;48.162;11.510;2023-05-10T08:58:47;1.33;;;1.00;;
7693;SDS011;3889;48.162;11.510;2023-05-10T09:01:16;1.25;;;0.90;;
7693;SDS011;3889;48.162;11.510;2023-05-10T09:03:45;0.95;;;0.90;;
7693;SDS011;3889;48.162;11.510;2023-05-10T09:06:14;1.30;;;0.87;;
7693;SDS011;3889;48.162;11.510;2023-05-10T09:08:42;2.20;;;0.90;;
7693;SDS011;3889;48.162;11.510;2023-05-10T09:11:12;0.93;;;0.80;;
7693;SDS011;3889;48.162;11.510;2023-05-10T09:13:40;0.98;;;0.88;;
7693;SDS011;3889;48.162;11.510;2023-05-10T09:16:09;1.00;;;0.90;;
7693;SDS011;3889;48.162;11.510;2023-05-10T09:18:47;1.03;;;1.00;;
7693;SDS011;3889;48.162;11.510;2023-05-10T09:21:18;1.45;;;0.90;;
7693;SDS011;3889;48.162;11.510;2023-05-10T09:23:47;1.35;;;0.90;;
7693;SDS011;3889;48.162;11.510;2023-05-10T09:26:17;1.33;;;1.00;;
7693;SDS011;3889;48.162;11.510;2023-05-10T09:28:50;1.73;;;0.80;;
7693;SDS011;3889;48.162;11.510;2023-05-10T09:31:18;1.00;;;0.90;;
7693;SDS011;3889;48.162;11.510;2023-05-10T09:33:47;1.23;;;0.90;;
7693;SDS011;3889;48.162;11.510;2023-05-10T09:36:16;2.10;;;1.10;;
7693;SDS011;3889;48.162;11.510;2023-05-10T09:38:47;1.05;;;0.90;;
7693;SDS011;3889;48.162;11.510;2023-05-10T09:41:17;2.10;;;1.00;;
7693;SDS011;3889;48.162;11.510;2023-05-10T09:43:46;1.05;;;0.90;;
7693;SDS011;3889;48.162;11.510;2023-05-10T09:46:14;1.10;;;0.90;;
7693;SDS011;3889;48.162;11.510;2023-05-10T09:48:43;1.35;;;1.00;;
7693;SDS011;3889;48.162;11.510;2023-05-10T09:51:18;1.33;;;0.80;;
7693;SDS011;3889;48.162;11.510;2023-05-10T09:53:46;2.03;;;0.95;;
7693;SDS011;3889;48.162;11.510;2023-05-10T09:59:06;1.00;;;0.90;;
7693;SDS011;3889;48.162;11.510;2023-05-10T10:01:35;0.73;;;0.70;;
7693;SDS011;3889;48.162;11.510;2023-05-10T10:04:04;1.65;;;0.90;;
7693;SDS011;3889;48.162;11.510;2023-05-10T10:06:36;1.88;;;1.00;;
7693;SDS011;3889;48.162;11.510;2023-05-10T10:09:05;1.50;;;0.90;;
7693;SDS011;3889;48.162;11.510;2023-05-10T10:11:34;1.63;;;0.90;;
7693;SDS011;3889;48.162;11.510;2023-05-10T10:14:04;5.07;;;1.10;;
7693;SDS011;3889;48.162;11.510;2023-05-10T10:16:32;1.40;;;0.98;;
7693;SDS011;3889;48.162;11.510;2023-05-10T10:19:00;1.73;;;1.10;;
7693;SDS011;3889;48.162;11.510;2023-05-10T10:21:28;1.55;;;0.90;;
7693;SDS011;3889;48.162;11.510;2023-05-10T10:23:56;1.08;;;0.90;;
7693;SDS011;3889;48.162;11.510;2023-05-10T10:26:24;1.70;;;0.90;;
7693;SDS011;3889;48.162;11.510;2023-05-10T10:28:59;1.27;;;0.90;;
7693;SDS011;3889;48.162;11.510;2023-05-10T10:31:39;1.13;;;0.90;;
7693;SDS011;3889;48.162;11.510;2023-05-10T10:34:16;1.75;;;0.90;;
7693;SDS011;3889;48.162;11.510;2023-05-10T10:36:52;1.00;;;0.90;;
7693;SDS011;3889;48.162;11.510;2023-05-10T10:39:20;1.65;;;0.90;;
7693;SDS011;3889;48.162;11.510;2023-05-10T10:41:49;0.90;;;0.90;;
7693;SDS011;3889;48.162;11.510;2023-05-10T10:44:26;1.20;;;1.10;;
7693;SDS011;3889;48.162;11.510;2023-05-10T10:47:05;1.80;;;1.30;;
7693;SDS011;3889;48.162;11.510;2023-05-10T10:49:51;1.95;;;1.00;;
7693;SDS011;3889;48.162;11.510;2023-05-10T10:52:31;1.27;;;1.13;;
7693;SDS011;3889;48.162;11.510;2023-05-10T10:55:01;1.57;;;1.10;;
7693;SDS011;3889;48.162;11.510;2023-05-10T10:57:31;1.57;;;1.17;;
7693;SDS011;3889;48.162;11.510;2023-05-10T11:02:58;1.90;;;1.17;;
7693;SDS011;3889;48.162;11.510;2023-05-10T11:08:14;3.40;;;1.23;;
7693;SDS011;3889;48.162;11.510;2023-05-10T11:11:01;1.20;;;1.10;;
7693;SDS011;3889;48.162;11.510;2023-05-10T11:13:33;1.63;;;1.17;;
7693;SDS011;3889;48.162;11.510;2023-05-10T11:16:16;1.20;;;1.10;;
7693;SDS011;3889;48.162;11.510;2023-05-10T11:18:56;2.45;;;1.20;;
7693;SDS011;3889;48.162;11.510;2023-05-10T11:21:27;1.33;;;1.23;;
7693;SDS011;3889;48.162;11.510;2023-05-10T11:23:56;1.48;;;1.00;;
7693;SDS011;3889;48.162;11.510;2023-05-10T11:26:25;2.08;;;1.40;;
7693;SDS011;3889;48.162;11.510;2023-05-10T11:28:57;2.42;;;1.00;;
7693;SDS011;3889;48.162;11.510;2023-05-10T11:31:28;1.75;;;1.20;;
7693;SDS011;3889;48.162;11.510;2023-05-10T11:33:56;2.05;;;1.30;;
7693;SDS011;3889;48.162;11.510;2023-05-10T11:36:28;1.90;;;1.30;;
7693;SDS011;3889;48.162;11.510;2023-05-10T11:38:57;2.10;;;1.60;;
7693;SDS011;3889;48.162;11.510;2023-05-10T11:41:25;2.13;;;1.70;;
7693;SDS011;3889;48.162;11.510;2023-05-10T11:43:55;2.03;;;1.50;;
7693;SDS011;3889;48.162;11.510;2023-05-10T11:46:24;1.40;;;1.30;;
7693;SDS011;3889;48.162;11.510;2023-05-10T11:48:56;1.42;;;1.30;;
7693;SDS011;3889;48.162;11.510;2023-05-10T11:51:26;2.57;;;1.17;;
7693;SDS011;3889;48.162;11.510;2023-05-10T11:53:55;1.35;;;1.25;;
7693;SDS011;3889;48.162;11.510;2023-05-10T11:56:23;2.33;;;1.35;;
7693;SDS011;3889;48.162;11.510;2023-05-10T11:58:53;2.08;;;1.10;;
7693;SDS011;3889;48.162;11.510;2023-05-10T12:01:22;1.20;;;1.10;;
7693;SDS011;3889;48.162;11.510;2023-05-10T12:03:51;2.20;;;1.40;;
7693;SDS011;3889;48.162;11.510;2023-05-10T12:06:22;3.17;;;1.33;;
7693;SDS011;3889;48.162;11.510;2023-05-10T12:08:53;2.88;;;1.50;;
7693;SDS011;3889;48.162;11.510;2023-05-10T12:11:24;1.85;;;1.20;;
7693;SDS011;3889;48.162;11.510;2023-05-10T12:13:52;2.05;;;1.40;;
7693;SDS011;3889;48.162;11.510;2023-05-10T12:16:20;5.07;;;1.50;;
7693;SDS011;3889;48.162;11.510;2023-05-10T12:18:50;2.55;;;1.33;;
7693;SDS011;3889;48.162;11.510;2023-05-10T12:21:18;4.20;;;1.50;;
7693;SDS011;3889;48.162;11.510;2023-05-10T12:23:49;1.75;;;1.50;;
7693;SDS011;3889;48.162;11.510;2023-05-10T12:26:20;3.65;;;1.52;;
7693;SDS011;3889;48.162;11.510;2023-05-10T12:28:49;1.85;;;1.50;;
7693;SDS011;3889;48.162;11.510;2023-05-10T12:31:17;1.70;;;1.40;;
7693;SDS011;3889;48.162;11.510;2023-05-10T12:33:45;1.75;;;1.40;;
7693;SDS011;3889;48.162;11.510;2023-05-10T12:36:14;2.63;;;1.60;;
7693;SDS011;3889;48.162;11.510;2023-05-10T12:38:42;3.05;;;1.83;;
7693;SDS011;3889;48.162;11.510;2023-05-10T12:41:16;2.45;;;1.65;;
7693;SDS011;3889;48.162;11.510;2023-05-10T12:43:45;2.50;;;1.73;;
7693;SDS011;3889;48.162;11.510;2023-05-10T12:46:15;3.53;;;1.70;;
7693;SDS011;3889;48.162;11.510;2023-05-10T12:48:44;3.95;;;1.70;;
7693;SDS011;3889;48.162;11.510;2023-05-10T12:51:22;1.83;;;1.52;;
7693;SDS011;3889;48.162;11.510;2023-05-10T12:53:50;1.60;;;1.30;;
7693;SDS011;3889;48.162;11.510;2023-05-10T12:56:19;2.87;;;1.50;;
7693;SDS011;3889;48.162;11.510;2023-05-10T12:58:47;3.10;;;1.63;;
7693;SDS011;3889;48.162;11.510;2023-05-10T13:01:15;1.98;;;1.48;;
7693;SDS011;3889;48.162;11.510;2023-05-10T13:03:44;1.67;;;1.40;;
7693;SDS011;3889;48.162;11.510;2023-05-10T13:06:12;2.10;;;1.27;;
7693;SDS011;3889;48.162;11.510;2023-05-10T13:08:40;1.95;;;1.30;;
7693;SDS011;3889;48.162;11.510;2023-05-10T13:11:08;1.30;;;1.20;;
7693;SDS011;3889;48.162;11.510;2023-05-10T13:13:37;1.90;;;1.17;;
7693;SDS011;3889;48.162;11.510;2023-05-10T13:16:06;1.88;;;1.20;;
7693;SDS011;3889;48.162;11.510;2023-05-10T13:18:34;2.20;;;1.45;;
7693;SDS011;3889;48.162;11.510;2023-05-10T13:21:02;1.93;;;1.50;;
7693;SDS011;3889;48.162;11.510;2023-05-10T13:23:31;2.60;;;1.67;;
7693;SDS011;3889;48.162;11.510;2023-05-10T13:25:59;2.88;;;1.90;;
7693;SDS011;3889;48.162;11.510;2023-05-10T13:28:27;3.38;;;1.70;;
7693;SDS011;3889;48.162;11.510;2023-05-10T13:30:57;2.50;;;1.80;;
7693;SDS011;3889;48.162;11.510;2023-05-10T13:33:26;2.30;;;1.70;;
7693;SDS011;3889;48.162;11.510;2023-05-10T13:35:53;4.43;;;1.60;;
7693;SDS011;3889;48.162;11.510;2023-05-10T13:38:21;2.90;;;1.65;;
7693;SDS011;3889;48.162;11.510;2023-05-10T13:40:49;2.40;;;1.50;;
7693;SDS011;3889;48.162;11.510;2023-05-10T13:43:19;2.63;;;1.60;;
7693;SDS011;3889;48.162;11.510;2023-05-10T13:45:46;2.03;;;1.48;;
7693;SDS011;3889;48.162;11.510;2023-05-10T13:48:16;2.55;;;1.50;;
7693;SDS011;3889;48.162;11.510;2023-05-10T13:50:43;1.48;;;1.27;;
7693;SDS011;3889;48.162;11.510;2023-05-10T13:53:12;1.90;;;1.30;;
7693;SDS011;3889;48.162;11.510;2023-05-10T13:55:40;1.67;;;1.52;;
7693;SDS011;3889;48.162;11.510;2023-05-10T13:58:08;1.60;;;1.50;;
7693;SDS011;3889;48.162;11.510;2023-05-10T14:00:36;2.50;;;1.60;;
7693;SDS011;3889;48.162;11.510;2023-05-10T14:03:04;2.35;;;1.98;;
7693;SDS011;3889;48.162;11.510;2023-05-10T14:05:34;1.97;;;1.40;;
7693;SDS011;3889;48.162;11.510;2023-05-10T14:08:02;4.20;;;1.60;;
7693;SDS011;3889;48.162;11.510;2023-05-10T14:10:30;1.97;;;1.60;;
7693;SDS011;3889;48.162;11.510;2023-05-10T14:12:58;2.23;;;1.60;;
7693;SDS011;3889;48.162;11.510;2023-05-10T14:15:26;1.42;;;1.30;;
7693;SDS011;3889;48.162;11.510;2023-05-10T14:17:54;2.80;;;1.42;;
7693;SDS011;3889;48.162;11.510;2023-05-10T14:20:22;1.50;;;1.40;;
7693;SDS011;3889;48.162;11.510;2023-05-10T14:22:51;2.55;;;1.20;;
7693;SDS011;3889;48.162;11.510;2023-05-10T14:25:19;1.73;;;1.17;;
7693;SDS011;3889;48.162;11.510;2023-05-10T14:27:47;1.70;;;1.45;;
7693;SDS011;3889;48.162;11.510;2023-05-10T14:30:14;1.52;;;1.38;;
7693;SDS011;3889;48.162;11.510;2023-05-10T14:32:42;1.45;;;1.20;;
7693;SDS011;3889;48.162;11.510;2023-05-10T14:35:10;1.30;;;1.20;;
7693;SDS011;3889;48.162;11.510;2023-05-10T14:37:41;3.00;;;1.60;;
7693;SDS011;3889;48.162;11.510;2023-05-10T14:40:11;1.55;;;1.15;;
7693;SDS011;3889;48.162;11.510;2023-05-10T14:42:41;2.23;;;1.70;;
7693;SDS011;3889;48.162;11.510;2023-05-10T14:45:09;2.05;;;1.35;;
7693;SDS011;3889;48.162;11.510;2023-05-10T14:47:38;2.55;;;1.20;;
7693;SDS011;3889;48.162;11.510;2023-05-10T14:50:06;1.50;;;1.30;;
7693;SDS011;3889;48.162;11.510;2023-05-10T14:52:34;1.02;;;0.95;;
7693;SDS011;3889;48.162;11.510;2023-05-10T14:55:02;1.88;;;1.10;;
7693;SDS011;3889;48.162;11.510;2023-05-10T14:57:32;1.58;;;1.30;;
7693;SDS011;3889;48.162;11.510;2023-05-10T15:00:00;1.65;;;1.35;;
7693;SDS011;3889;48.162;11.510;2023-05-10T15:02:28;1.13;;;1.02;;
7693;SDS011;3889;48.162;11.510;2023-05-10T15:04:58;1.40;;;1.05;;
7693;SDS011;3889;48.162;11.510;2023-05-10T15:07:26;2.10;;;1.30;;
7693;SDS011;3889;48.162;11.510;2023-05-10T15:09:54;4.38;;;1.30;;
7693;SDS011;3889;48.162;11.510;2023-05-10T15:12:22;2.38;;;1.23;;
7693;SDS011;3889;48.162;11.510;2023-05-10T15:14:51;2.50;;;1.45;;
7693;SDS011;3889;48.162;11.510;2023-05-10T15:17:19;2.05;;;1.20;;
7693;SDS011;3889;48.162;11.510;2023-05-10T15:19:47;1.30;;;1.20;;
7693;SDS011;3889;48.162;11.510;2023-05-10T15:22:15;2.35;;;1.42;;
7693;SDS011;3889;48.162;11.510;2023-05-10T15:24:44;1.35;;;1.20;;